sensor_id;sensor_type;location;lat;lon;timestamp;P1;durP1;ratioP1;P2;durP2;ratioP2
25057;SDS011;13057;50.978;11.034;2023-04-08T08:31:54;7.00;;;3.88;;
25057;SDS011;13057;50.978;11.034;2023-04-08T08:34:21;5.50;;;3.40;;
25057;SDS011;13057;50.978;11.034;2023-04-08T08:36:46;7.05;;;4.07;;
25057;SDS011;13057;50.978;11.034;2023-04-08T08:39:12;8.82;;;3.95;;
25057;SDS011;13057;50.978;11.034;2023-04-08T08:41:38;9.40;;;4.07;;
25057;SDS011;13057;50.978;11.034;2023-04-08T08:44:06;7.07;;;4.13;;
25057;SDS011;13057;50.978;11.034;2023-04-08T08:46:32;5.65;;;3.65;;
25057;SDS011;13057;50.978;11.034;2023-04-08T08:48:58;5.65;;;3.72;;
25057;SDS011;13057;50.978;11.034;2023-04-08T08:51:25;7.15;;;4.15;;
25057;SDS011;13057;50.978;11.034;2023-04-08T08:53:52;6.43;;;4.65;;
25057;SDS011;13057;50.978;11.034;2023-04-08T08:56:18;5.75;;;3.53;;
25057;SDS011;13057;50.978;11.034;2023-04-08T08:58:44;9.68;;;3.35;;
25057;SDS011;13057;50.978;11.034;2023-04-08T09:04:08;6.43;;;3.65;;
25057;SDS011;13057;50.978;11.034;2023-04-08T09:06:39;5.65;;;3.67;;
25057;SDS011;13057;50.978;11.034;2023-04-08T09:09:06;8.00;;;4.40;;
25057;SDS011;13057;50.978;11.034;2023-04-08T09:11:37;8.18;;;3.95;;
25057;SDS011;13057;50.978;11.034;2023-04-08T09:14:05;9.63;;;5.53;;
25057;SDS011;13057;50.978;11.034;2023-04-08T09:16:43;8.40;;;4.90;;
25057;SDS011;13057;50.978;11.034;2023-04-08T09:19:10;7.07;;;4.38;;
25057;SDS011;13057;50.978;11.034;2023-04-08T09:21:36;10.85;;;6.30;;
25057;SDS011;13057;50.978;11.034;2023-04-08T09:24:02;10.93;;;5.55;;
25057;SDS011;13057;50.978;11.034;2023-04-08T09:26:28;7.90;;;4.32;;
25057;SDS011;13057;50.978;11.034;2023-04-08T09:28:57;8.73;;;4.85;;
25057;SDS011;13057;50.978;11.034;2023-04-08T09:31:32;9.02;;;4.78;;
25057;SDS011;13057;50.978;11.034;2023-04-08T09:34:10;7.85;;;4.95;;
25057;SDS011;13057;50.978;11.034;2023-04-08T09:36:38;6.63;;;4.22;;
25057;SDS011;13057;50.978;11.034;2023-04-08T09:39:04;6.63;;;4.40;;
25057;SDS011;13057;50.978;11.034;2023-04-08T09:41:33;6.78;;;4.18;;
25057;SDS011;13057;50.978;11.034;2023-04-08T09:44:01;5.95;;;4.32;;
25057;SDS011;13057;50.978;11.034;2023-04-08T09:46:31;6.57;;;4.13;;
25057;SDS011;13057;50.978;11.034;2023-04-08T09:49:11;7.18;;;4.38;;
25057;SDS011;13057;50.978;11.034;2023-04-08T09:51:45;5.65;;;3.60;;
25057;SDS011;13057;50.978;11.034;2023-04-08T09:54:18;6.38;;;4.28;;
25057;SDS011;13057;50.978;11.034;2023-04-08T09:56:48;7.95;;;4.68;;
25057;SDS011;13057;50.978;11.034;2023-04-08T09:59:23;5.88;;;3.92;;
25057;SDS011;13057;50.978;11.034;2023-04-08T10:01:52;10.07;;;5.13;;
25057;SDS011;13057;50.978;11.034;2023-04-08T10:04:21;9.80;;;5.80;;
25057;SDS011;13057;50.978;11.034;2023-04-08T10:06:52;6.07;;;3.92;;
25057;SDS011;13057;50.978;11.034;2023-04-08T10:09:21;6.32;;;4.00;;
25057;SDS011;13057;50.978;11.034;2023-04-08T10:11:48;7.10;;;4.13;;
25057;SDS011;13057;50.978;11.034;2023-04-08T10:14:15;13.82;;;9.45;;
25057;SDS011;13057;50.978;11.034;2023-04-08T10:16:40;6.20;;;4.13;;
25057;SDS011;13057;50.978;11.034;2023-04-08T10:21:56;7.43;;;4.65;;
25057;SDS011;13057;50.978;11.034;2023-04-08T10:24:22;6.00;;;3.85;;
25057;SDS011;13057;50.978;11.034;2023-04-08T10:26:50;5.38;;;3.58;;
25057;SDS011;13057;50.978;11.034;2023-04-08T10:29:30;4.80;;;3.60;;
25057;SDS011;13057;50.978;11.034;2023-04-08T10:31:57;6.00;;;3.85;;
25057;SDS011;13057;50.978;11.034;2023-04-08T10:34:24;6.28;;;4.40;;
25057;SDS011;13057;50.978;11.034;2023-04-08T10:36:53;9.10;;;4.28;;
25057;SDS011;13057;50.978;11.034;2023-04-08T10:39:20;6.75;;;4.25;;
25057;SDS011;13057;50.978;11.034;2023-04-08T10:41:47;5.20;;;3.90;;
25057;SDS011;13057;50.978;11.034;2023-04-08T10:44:14;8.52;;;4.80;;
25057;SDS011;13057;50.978;11.034;2023-04-08T10:46:42;8.13;;;4.35;;
25057;SDS011;13057;50.978;11.034;2023-04-08T10:49:09;5.88;;;3.80;;
25057;SDS011;13057;50.978;11.034;2023-04-08T10:51:35;6.18;;;4.30;;
25057;SDS011;13057;50.978;11.034;2023-04-08T10:54:04;8.80;;;4.65;;
25057;SDS011;13057;50.978;11.034;2023-04-08T10:56:31;5.32;;;4.00;;
25057;SDS011;13057;50.978;11.034;2023-04-08T10:58:58;6.93;;;4.18;;
25057;SDS011;13057;50.978;11.034;2023-04-08T11:01:24;8.82;;;4.32;;
25057;SDS011;13057;50.978;11.034;2023-04-08T11:03:51;5.93;;;4.28;;
25057;SDS011;13057;50.978;11.034;2023-04-08T11:06:17;6.93;;;4.40;;
25057;SDS011;13057;50.978;11.034;2023-04-08T11:08:43;7.20;;;4.30;;
25057;SDS011;13057;50.978;11.034;2023-04-08T11:11:10;9.68;;;4.63;;
25057;SDS011;13057;50.978;11.034;2023-04-08T11:13:37;7.57;;;4.53;;
25057;SDS011;13057;50.978;11.034;2023-04-08T11:16:05;7.80;;;5.15;;
25057;SDS011;13057;50.978;11.034;2023-04-08T11:18:33;9.00;;;5.40;;
25057;SDS011;13057;50.978;11.034;2023-04-08T11:21:01;12.85;;;7.80;;
25057;SDS011;13057;50.978;11.034;2023-04-08T11:23:28;10.10;;;6.00;;
25057;SDS011;13057;50.978;11.034;2023-04-08T11:25:54;10.77;;;6.53;;
25057;SDS011;13057;50.978;11.034;2023-04-08T11:28:20;35.83;;;22.88;;
25057;SDS011;13057;50.978;11.034;2023-04-08T11:30:47;12.73;;;7.40;;
25057;SDS011;13057;50.978;11.034;2023-04-08T11:33:13;12.15;;;6.75;;
25057;SDS011;13057;50.978;11.034;2023-04-08T11:35:40;14.07;;;7.70;;
25057;SDS011;13057;50.978;11.034;2023-04-08T11:38:07;16.38;;;10.57;;
25057;SDS011;13057;50.978;11.034;2023-04-08T11:40:35;16.00;;;8.57;;
25057;SDS011;13057;50.978;11.034;2023-04-08T11:43:09;13.43;;;8.70;;
25057;SDS011;13057;50.978;11.034;2023-04-08T11:45:39;15.85;;;9.18;;
25057;SDS011;13057;50.978;11.034;2023-04-08T11:48:10;13.63;;;8.93;;
25057;SDS011;13057;50.978;11.034;2023-04-08T11:50:38;14.80;;;8.27;;
25057;SDS011;13057;50.978;11.034;2023-04-08T11:53:16;11.85;;;7.97;;
25057;SDS011;13057;50.978;11.034;2023-04-08T11:55:43;14.13;;;9.63;;
25057;SDS011;13057;50.978;11.034;2023-04-08T11:58:10;12.77;;;8.50;;
25057;SDS011;13057;50.978;11.034;2023-04-08T12:00:37;12.68;;;8.32;;
25057;SDS011;13057;50.978;11.034;2023-04-08T12:03:05;15.05;;;8.35;;
25057;SDS011;13057;50.978;11.034;2023-04-08T12:05:31;11.55;;;7.45;;
25057;SDS011;13057;50.978;11.034;2023-04-08T12:07:57;15.15;;;9.10;;
25057;SDS011;13057;50.978;11.034;2023-04-08T12:10:23;12.02;;;7.57;;
25057;SDS011;13057;50.978;11.034;2023-04-08T12:12:49;12.30;;;7.85;;
25057;SDS011;13057;50.978;11.034;2023-04-08T12:15:16;14.02;;;7.75;;
25057;SDS011;13057;50.978;11.034;2023-04-08T12:17:42;14.27;;;8.27;;
25057;SDS011;13057;50.978;11.034;2023-04-08T12:20:08;13.70;;;8.13;;
25057;SDS011;13057;50.978;11.034;2023-04-08T12:22:35;12.82;;;8.38;;
25057;SDS011;13057;50.978;11.034;2023-04-08T12:25:01;13.23;;;8.25;;
25057;SDS011;13057;50.978;11.034;2023-04-08T12:27:29;13.93;;;8.50;;
25057;SDS011;13057;50.978;11.034;2023-04-08T12:29:57;15.20;;;9.10;;
25057;SDS011;13057;50.978;11.034;2023-04-08T12:32:23;15.80;;;9.02;;
25057;SDS011;13057;50.978;11.034;2023-04-08T12:34:50;15.13;;;9.15;;
25057;SDS011;13057;50.978;11.034;2023-04-08T12:37:16;16.77;;;9.82;;
25057;SDS011;13057;50.978;11.034;2023-04-08T12:39:42;15.43;;;8.48;;
25057;SDS011;13057;50.978;11.034;2023-04-08T12:42:08;16.08;;;9.32;;
25057;SDS011;13057;50.978;11.034;2023-04-08T12:44:33;17.75;;;9.60;;
25057;SDS011;13057;50.978;11.034;2023-04-08T12:47:00;16.40;;;10.00;;
25057;SDS011;13057;50.978;11.034;2023-04-08T12:49:25;16.15;;;8.50;;
25057;SDS011;13057;50.978;11.034;2023-04-08T12:51:52;15.63;;;9.52;;
25057;SDS011;13057;50.978;11.034;2023-04-08T12:54:19;18.65;;;9.77;;
25057;SDS011;13057;50.978;11.034;2023-04-08T12:56:46;16.70;;;8.90;;
25057;SDS011;13057;50.978;11.034;2023-04-08T12:59:12;15.38;;;9.10;;
25057;SDS011;13057;50.978;11.034;2023-04-08T13:01:38;16.10;;;9.15;;
25057;SDS011;13057;50.978;11.034;2023-04-08T13:04:05;17.83;;;10.38;;
25057;SDS011;13057;50.978;11.034;2023-04-08T13:06:30;14.88;;;9.15;;
25057;SDS011;13057;50.978;11.034;2023-04-08T13:08:56;17.98;;;10.30;;
25057;SDS011;13057;50.978;11.034;2023-04-08T13:11:22;25.80;;;13.23;;
25057;SDS011;13057;50.978;11.034;2023-04-08T13:13:49;25.48;;;10.10;;
25057;SDS011;13057;50.978;11.034;2023-04-08T13:16:14;25.52;;;13.05;;
25057;SDS011;13057;50.978;11.034;2023-04-08T13:18:41;17.83;;;10.43;;
25057;SDS011;13057;50.978;11.034;2023-04-08T13:21:07;17.33;;;9.77;;
25057;SDS011;13057;50.978;11.034;2023-04-08T13:23:34;17.88;;;11.02;;
25057;SDS011;13057;50.978;11.034;2023-04-08T13:26:01;15.98;;;9.88;;
25057;SDS011;13057;50.978;11.034;2023-04-08T13:28:26;27.27;;;11.65;;
25057;SDS011;13057;50.978;11.034;2023-04-08T13:30:53;17.42;;;10.38;;
25057;SDS011;13057;50.978;11.034;2023-04-08T13:33:19;19.52;;;11.05;;
25057;SDS011;13057;50.978;11.034;2023-04-08T13:35:46;16.52;;;10.55;;
25057;SDS011;13057;50.978;11.034;2023-04-08T13:38:12;20.52;;;11.07;;
25057;SDS011;13057;50.978;11.034;2023-04-08T13:40:38;16.40;;;9.95;;
25057;SDS011;13057;50.978;11.034;2023-04-08T13:43:04;16.30;;;10.05;;
25057;SDS011;13057;50.978;11.034;2023-04-08T13:45:30;17.92;;;10.38;;
25057;SDS011;13057;50.978;11.034;2023-04-08T13:47:59;17.23;;;9.95;;
25057;SDS011;13057;50.978;11.034;2023-04-08T13:50:25;16.48;;;10.38;;
25057;SDS011;13057;50.978;11.034;2023-04-08T13:52:51;18.42;;;11.10;;
25057;SDS011;13057;50.978;11.034;2023-04-08T13:55:16;18.02;;;10.45;;
25057;SDS011;13057;50.978;11.034;2023-04-08T13:57:42;15.98;;;10.55;;
25057;SDS011;13057;50.978;11.034;2023-04-08T14:00:09;19.63;;;10.73;;
25057;SDS011;13057;50.978;11.034;2023-04-08T14:02:35;21.23;;;10.77;;
25057;SDS011;13057;50.978;11.034;2023-04-08T14:05:01;17.02;;;10.55;;
25057;SDS011;13057;50.978;11.034;2023-04-08T14:07:27;22.63;;;12.55;;
25057;SDS011;13057;50.978;11.034;2023-04-08T14:09:53;18.67;;;11.65;;
25057;SDS011;13057;50.978;11.034;2023-04-08T14:12:19;21.40;;;11.75;;
25057;SDS011;13057;50.978;11.034;2023-04-08T14:14:45;24.45;;;15.32;;
25057;SDS011;13057;50.978;11.034;2023-04-08T14:17:11;19.77;;;12.35;;
25057;SDS011;13057;50.978;11.034;2023-04-08T14:19:37;19.40;;;12.05;;
25057;SDS011;13057;50.978;11.034;2023-04-08T14:22:03;19.90;;;11.38;;
25057;SDS011;13057;50.978;11.034;2023-04-08T14:24:29;19.65;;;11.60;;
25057;SDS011;13057;50.978;11.034;2023-04-08T14:26:54;21.75;;;12.32;;
25057;SDS011;13057;50.978;11.034;2023-04-08T14:29:22;21.85;;;12.48;;
25057;SDS011;13057;50.978;11.034;2023-04-08T14:31:48;23.85;;;12.15;;
25057;SDS011;13057;50.978;11.034;2023-04-08T14:34:13;20.52;;;12.35;;
25057;SDS011;13057;50.978;11.034;2023-04-08T14:36:39;20.50;;;12.18;;
25057;SDS011;13057;50.978;11.034;2023-04-08T14:39:05;23.92;;;13.48;;
25057;SDS011;13057;50.978;11.034;2023-04-08T14:41:31;28.65;;;15.80;;
25057;SDS011;13057;50.978;11.034;2023-04-08T14:43:57;24.67;;;13.25;;
25057;SDS011;13057;50.978;11.034;2023-04-08T14:46:24;20.45;;;12.85;;
25057;SDS011;13057;50.978;11.034;2023-04-08T14:48:51;23.15;;;13.10;;
25057;SDS011;13057;50.978;11.034;2023-04-08T14:51:16;23.05;;;13.23;;
25057;SDS011;13057;50.978;11.034;2023-04-08T14:53:43;23.88;;;13.85;;
25057;SDS011;13057;50.978;11.034;2023-04-08T14:56:09;26.20;;;13.90;;
25057;SDS011;13057;50.978;11.034;2023-04-08T14:58:37;22.95;;;13.45;;
25057;SDS011;13057;50.978;11.034;2023-04-08T15:01:03;22.08;;;13.02;;
25057;SDS011;13057;50.978;11.034;2023-04-08T15:03:28;22.33;;;12.60;;
25057;SDS011;13057;50.978;11.034;2023-04-08T15:05:55;20.98;;;13.32;;
25057;SDS011;13057;50.978;11.034;2023-04-08T15:08:22;22.27;;;12.88;;
25057;SDS011;13057;50.978;11.034;2023-04-08T15:10:47;22.73;;;13.43;;
25057;SDS011;13057;50.978;11.034;2023-04-08T15:13:13;21.80;;;13.60;;
25057;SDS011;13057;50.978;11.034;2023-04-08T15:15:39;24.83;;;13.95;;
25057;SDS011;13057;50.978;11.034;2023-04-08T15:18:05;25.63;;;13.60;;
25057;SDS011;13057;50.978;11.034;2023-04-08T15:20:31;23.95;;;13.30;;
25057;SDS011;13057;50.978;11.034;2023-04-08T15:22:57;24.10;;;13.77;;
25057;SDS011;13057;50.978;11.034;2023-04-08T15:25:23;22.52;;;14.05;;
25057;SDS011;13057;50.978;11.034;2023-04-08T15:27:49;23.77;;;13.90;;
25057;SDS011;13057;50.978;11.034;2023-04-08T15:30:15;24.05;;;14.38;;
25057;SDS011;13057;50.978;11.034;2023-04-08T15:32:41;21.30;;;13.13;;
25057;SDS011;13057;50.978;11.034;2023-04-08T15:35:07;24.52;;;13.45;;
25057;SDS011;13057;50.978;11.034;2023-04-08T15:37:33;21.58;;;13.63;;
25057;SDS011;13057;50.978;11.034;2023-04-08T15:39:59;26.25;;;15.23;;
25057;SDS011;13057;50.978;11.034;2023-04-08T15:42:25;23.05;;;13.05;;
25057;SDS011;13057;50.978;11.034;2023-04-08T15:44:51;23.10;;;13.05;;
25057;SDS011;13057;50.978;11.034;2023-04-08T15:47:17;19.52;;;12.85;;
25057;SDS011;13057;50.978;11.034;2023-04-08T15:49:43;21.52;;;13.32;;
25057;SDS011;13057;50.978;11.034;2023-04-08T15:52:09;23.45;;;14.73;;
25057;SDS011;13057;50.978;11.034;2023-04-08T15:54:35;22.77;;;14.02;;
25057;SDS011;13057;50.978;11.034;2023-04-08T15:57:01;23.05;;;13.30;;
25057;SDS011;13057;50.978;11.034;2023-04-08T15:59:27;23.77;;;13.50;;
25057;SDS011;13057;50.978;11.034;2023-04-08T16:01:54;22.13;;;13.02;;
25057;SDS011;13057;50.978;11.034;2023-04-08T16:04:21;21.50;;;13.73;;
25057;SDS011;13057;50.978;11.034;2023-04-08T16:06:47;22.58;;;12.93;;
25057;SDS011;13057;50.978;11.034;2023-04-08T16:09:13;20.23;;;12.50;;
25057;SDS011;13057;50.978;11.034;2023-04-08T16:11:40;21.98;;;13.23;;
25057;SDS011;13057;50.978;11.034;2023-04-08T16:14:08;20.33;;;12.30;;
25057;SDS011;13057;50.978;11.034;2023-04-08T16:16:34;21.33;;;12.10;;
25057;SDS011;13057;50.978;11.034;2023-04-08T16:19:02;20.08;;;12.60;;
25057;SDS011;13057;50.978;11.034;2023-04-08T16:21:28;18.73;;;11.35;;
25057;SDS011;13057;50.978;11.034;2023-04-08T16:23:55;18.98;;;12.15;;
25057;SDS011;13057;50.978;11.034;2023-04-08T16:26:21;22.08;;;13.10;;
25057;SDS011;13057;50.978;11.034;2023-04-08T16:28:48;21.38;;;13.60;;
25057;SDS011;13057;50.978;11.034;2023-04-08T16:31:14;19.25;;;12.00;;
25057;SDS011;13057;50.978;11.034;2023-04-08T16:33:40;20.45;;;12.48;;
25057;SDS011;13057;50.978;11.034;2023-04-08T16:36:06;21.50;;;13.00;;
25057;SDS011;13057;50.978;11.034;2023-04-08T16:38:32;23.05;;;12.95;;
25057;SDS011;13057;50.978;11.034;2023-04-08T16:40:58;20.73;;;12.57;;
25057;SDS011;13057;50.978;11.034;2023-04-08T16:43:24;20.60;;;12.18;;
25057;SDS011;13057;50.978;11.034;2023-04-08T16:45:50;20.77;;;12.43;;
25057;SDS011;13057;50.978;11.034;2023-04-08T16:48:17;23.08;;;12.07;;
25057;SDS011;13057;50.978;11.034;2023-04-08T16:50:43;28.50;;;16.77;;
25057;SDS011;13057;50.978;11.034;2023-04-08T16:53:10;20.85;;;12.38;;
25057;SDS011;13057;50.978;11.034;2023-04-08T16:55:35;23.60;;;13.35;;
25057;SDS011;13057;50.978;11.034;2023-04-08T16:58:02;25.73;;;12.95;;
25057;SDS011;13057;50.978;11.034;2023-04-08T17:00:28;19.45;;;12.40;;
25057;SDS011;13057;50.978;11.034;2023-04-08T17:02:55;21.60;;;12.93;;
25057;SDS011;13057;50.978;11.034;2023-04-08T17:05:22;22.83;;;12.80;;
25057;SDS011;13057;50.978;11.034;2023-04-08T17:07:49;23.13;;;13.43;;
25057;SDS011;13057;50.978;11.034;2023-04-08T17:10:15;23.35;;;13.40;;
25057;SDS011;13057;50.978;11.034;2023-04-08T17:12:43;23.60;;;13.38;;
25057;SDS011;13057;50.978;11.034;2023-04-08T17:15:09;22.67;;;12.98;;
25057;SDS011;13057;50.978;11.034;2023-04-08T17:17:35;22.13;;;13.00;;
25057;SDS011;13057;50.978;11.034;2023-04-08T17:20:02;21.92;;;13.30;;
25057;SDS011;13057;50.978;11.034;2023-04-08T17:22:29;25.27;;;12.95;;
25057;SDS011;13057;50.978;11.034;2023-04-08T17:24:55;25.88;;;13.50;;
25057;SDS011;13057;50.978;11.034;2023-04-08T17:27:21;21.30;;;12.50;;
25057;SDS011;13057;50.978;11.034;2023-04-08T17:29:47;22.08;;;13.00;;
25057;SDS011;13057;50.978;11.034;2023-04-08T17:32:13;21.33;;;12.48;;
25057;SDS011;13057;50.978;11.034;2023-04-08T17:34:39;20.52;;;12.45;;
25057;SDS011;13057;50.978;11.034;2023-04-08T17:37:06;24.88;;;13.50;;
25057;SDS011;13057;50.978;11.034;2023-04-08T17:39:34;23.27;;;13.68;;
25057;SDS011;13057;50.978;11.034;2023-04-08T17:42:04;24.23;;;13.85;;
25057;SDS011;13057;50.978;11.034;2023-04-08T17:44:32;24.13;;;13.38;;
25057;SDS011;13057;50.978;11.034;2023-04-08T17:46:58;21.13;;;13.07;;
25057;SDS011;13057;50.978;11.034;2023-04-08T17:49:24;22.67;;;12.63;;
25057;SDS011;13057;50.978;11.034;2023-04-08T17:51:50;23.75;;;13.23;;
25057;SDS011;13057;50.978;11.034;2023-04-08T17:54:16;23.45;;;13.50;;
25057;SDS011;13057;50.978;11.034;2023-04-08T17:56:43;21.75;;;13.13;;
25057;SDS011;13057;50.978;11.034;2023-04-08T17:59:08;22.65;;;13.10;;
25057;SDS011;13057;50.978;11.034;2023-04-08T18:01:34;27.23;;;14.95;;
25057;SDS011;13057;50.978;11.034;2023-04-08T18:04:01;24.27;;;14.38;;
25057;SDS011;13057;50.978;11.034;2023-04-08T18:06:29;20.75;;;13.27;;
25057;SDS011;13057;50.978;11.034;2023-04-08T18:08:56;25.73;;;13.55;;
25057;SDS011;13057;50.978;11.034;2023-04-08T18:11:22;22.55;;;12.98;;
25057;SDS011;13057;50.978;11.034;2023-04-08T18:13:50;24.17;;;12.88;;
25057;SDS011;13057;50.978;11.034;2023-04-08T18:16:17;24.73;;;13.05;;
25057;SDS011;13057;50.978;11.034;2023-04-08T18:18:44;24.48;;;13.10;;
25057;SDS011;13057;50.978;11.034;2023-04-08T18:21:11;24.20;;;13.27;;
25057;SDS011;13057;50.978;11.034;2023-04-08T18:23:37;22.95;;;12.52;;
25057;SDS011;13057;50.978;11.034;2023-04-08T18:26:04;24.92;;;13.35;;
25057;SDS011;13057;50.978;11.034;2023-04-08T18:28:30;23.95;;;13.05;;
25057;SDS011;13057;50.978;11.034;2023-04-08T18:30:55;25.17;;;13.57;;
25057;SDS011;13057;50.978;11.034;2023-04-08T18:33:21;26.30;;;13.48;;
25057;SDS011;13057;50.978;11.034;2023-04-08T18:35:47;25.15;;;14.02;;
25057;SDS011;13057;50.978;11.034;2023-04-08T18:38:13;27.00;;;13.82;;
25057;SDS011;13057;50.978;11.034;2023-04-08T18:40:40;24.88;;;13.80;;
25057;SDS011;13057;50.978;11.034;2023-04-08T18:43:09;25.75;;;13.00;;
25057;SDS011;13057;50.978;11.034;2023-04-08T18:45:36;28.40;;;14.43;;
25057;SDS011;13057;50.978;11.034;2023-04-08T18:48:02;25.75;;;13.55;;
25057;SDS011;13057;50.978;11.034;2023-04-08T18:50:28;21.88;;;13.00;;
25057;SDS011;13057;50.978;11.034;2023-04-08T18:52:53;25.88;;;13.73;;
25057;SDS011;13057;50.978;11.034;2023-04-08T18:55:20;22.65;;;12.93;;
25057;SDS011;13057;50.978;11.034;2023-04-08T18:57:45;25.95;;;13.65;;
25057;SDS011;13057;50.978;11.034;2023-04-08T19:00:11;26.73;;;13.60;;
25057;SDS011;13057;50.978;11.034;2023-04-08T19:02:37;26.35;;;13.75;;
25057;SDS011;13057;50.978;11.034;2023-04-08T19:05:03;24.40;;;13.63;;
25057;SDS011;13057;50.978;11.034;2023-04-08T19:07:29;30.40;;;14.88;;
25057;SDS011;13057;50.978;11.034;2023-04-08T19:09:55;27.90;;;14.52;;
25057;SDS011;13057;50.978;11.034;2023-04-08T19:12:22;24.27;;;13.38;;
25057;SDS011;13057;50.978;11.034;2023-04-08T19:14:49;25.65;;;13.80;;
25057;SDS011;13057;50.978;11.034;2023-04-08T19:17:20;24.23;;;14.07;;
25057;SDS011;13057;50.978;11.034;2023-04-08T19:19:46;27.20;;;15.02;;
25057;SDS011;13057;50.978;11.034;2023-04-08T19:22:12;26.23;;;14.80;;
25057;SDS011;13057;50.978;11.034;2023-04-08T19:24:38;29.55;;;15.15;;
25057;SDS011;13057;50.978;11.034;2023-04-08T19:27:04;30.35;;;18.50;;
25057;SDS011;13057;50.978;11.034;2023-04-08T19:29:32;31.17;;;15.25;;
25057;SDS011;13057;50.978;11.034;2023-04-08T19:31:58;28.73;;;15.38;;
25057;SDS011;13057;50.978;11.034;2023-04-08T19:34:25;28.08;;;15.30;;
25057;SDS011;13057;50.978;11.034;2023-04-08T19:36:51;27.80;;;15.40;;
25057;SDS011;13057;50.978;11.034;2023-04-08T19:39:17;25.30;;;15.10;;
25057;SDS011;13057;50.978;11.034;2023-04-08T19:41:43;25.65;;;15.13;;
25057;SDS011;13057;50.978;11.034;2023-04-08T19:44:10;26.58;;;15.18;;
25057;SDS011;13057;50.978;11.034;2023-04-08T19:46:36;29.80;;;15.65;;
25057;SDS011;13057;50.978;11.034;2023-04-08T19:49:02;27.83;;;15.38;;
25057;SDS011;13057;50.978;11.034;2023-04-08T19:51:28;30.10;;;15.75;;
25057;SDS011;13057;50.978;11.034;2023-04-08T19:53:55;25.95;;;15.25;;
25057;SDS011;13057;50.978;11.034;2023-04-08T19:56:21;25.83;;;14.77;;
25057;SDS011;13057;50.978;11.034;2023-04-08T19:58:47;26.55;;;15.18;;
25057;SDS011;13057;50.978;11.034;2023-04-08T20:01:13;24.83;;;14.98;;
25057;SDS011;13057;50.978;11.034;2023-04-08T20:03:40;29.00;;;16.35;;
25057;SDS011;13057;50.978;11.034;2023-04-08T20:06:07;25.55;;;14.93;;
25057;SDS011;13057;50.978;11.034;2023-04-08T20:08:33;29.27;;;15.15;;
25057;SDS011;13057;50.978;11.034;2023-04-08T20:11:00;29.48;;;16.13;;
25057;SDS011;13057;50.978;11.034;2023-04-08T20:13:27;29.08;;;15.57;;
25057;SDS011;13057;50.978;11.034;2023-04-08T20:15:52;26.92;;;16.17;;
25057;SDS011;13057;50.978;11.034;2023-04-08T20:18:19;27.30;;;15.73;;
25057;SDS011;13057;50.978;11.034;2023-04-08T20:20:45;28.00;;;15.75;;
25057;SDS011;13057;50.978;11.034;2023-04-08T20:23:13;28.85;;;16.42;;
25057;SDS011;13057;50.978;11.034;2023-04-08T20:25:41;28.20;;;15.93;;
25057;SDS011;13057;50.978;11.034;2023-04-08T20:28:07;27.58;;;15.90;;
25057;SDS011;13057;50.978;11.034;2023-04-08T20:30:34;29.05;;;16.30;;
25057;SDS011;13057;50.978;11.034;2023-04-08T20:33:00;33.40;;;16.45;;
25057;SDS011;13057;50.978;11.034;2023-04-08T20:35:26;30.88;;;16.83;;
25057;SDS011;13057;50.978;11.034;2023-04-08T20:37:51;28.13;;;16.27;;
25057;SDS011;13057;50.978;11.034;2023-04-08T20:40:18;30.55;;;17.60;;
25057;SDS011;13057;50.978;11.034;2023-04-08T20:42:44;32.28;;;16.58;;
25057;SDS011;13057;50.978;11.034;2023-04-08T20:45:10;30.17;;;17.45;;
25057;SDS011;13057;50.978;11.034;2023-04-08T20:47:36;27.10;;;16.38;;
25057;SDS011;13057;50.978;11.034;2023-04-08T20:50:03;31.98;;;16.45;;
25057;SDS011;13057;50.978;11.034;2023-04-08T20:52:29;31.77;;;17.80;;
25057;SDS011;13057;50.978;11.034;2023-04-08T20:54:55;29.20;;;16.38;;
25057;SDS011;13057;50.978;11.034;2023-04-08T20:57:21;32.38;;;17.25;;
25057;SDS011;13057;50.978;11.034;2023-04-08T20:59:47;29.05;;;18.00;;
25057;SDS011;13057;50.978;11.034;2023-04-08T21:02:13;30.17;;;17.52;;
25057;SDS011;13057;50.978;11.034;2023-04-08T21:04:40;30.05;;;18.20;;
25057;SDS011;13057;50.978;11.034;2023-04-08T21:07:06;29.52;;;16.25;;
25057;SDS011;13057;50.978;11.034;2023-04-08T21:09:32;31.88;;;17.08;;
25057;SDS011;13057;50.978;11.034;2023-04-08T21:11:57;30.02;;;16.98;;
25057;SDS011;13057;50.978;11.034;2023-04-08T21:14:23;30.23;;;16.48;;
25057;SDS011;13057;50.978;11.034;2023-04-08T21:16:49;32.85;;;16.98;;
25057;SDS011;13057;50.978;11.034;2023-04-08T21:19:15;31.08;;;17.95;;
25057;SDS011;13057;50.978;11.034;2023-04-08T21:21:41;31.48;;;17.30;;
25057;SDS011;13057;50.978;11.034;2023-04-08T21:24:09;29.38;;;17.17;;
25057;SDS011;13057;50.978;11.034;2023-04-08T21:26:35;30.65;;;18.08;;
25057;SDS011;13057;50.978;11.034;2023-04-08T21:29:02;30.92;;;17.55;;
25057;SDS011;13057;50.978;11.034;2023-04-08T21:31:27;31.83;;;17.85;;
25057;SDS011;13057;50.978;11.034;2023-04-08T21:33:54;31.15;;;17.77;;
25057;SDS011;13057;50.978;11.034;2023-04-08T21:36:20;31.38;;;18.30;;
25057;SDS011;13057;50.978;11.034;2023-04-08T21:38:49;30.67;;;17.02;;
25057;SDS011;13057;50.978;11.034;2023-04-08T21:41:15;30.88;;;18.20;;
25057;SDS011;13057;50.978;11.034;2023-04-08T21:43:41;33.40;;;17.58;;
25057;SDS011;13057;50.978;11.034;2023-04-08T21:46:07;35.30;;;18.65;;
25057;SDS011;13057;50.978;11.034;2023-04-08T21:48:33;32.70;;;17.95;;
25057;SDS011;13057;50.978;11.034;2023-04-08T21:51:00;32.10;;;18.25;;
25057;SDS011;13057;50.978;11.034;2023-04-08T21:53:25;33.15;;;19.05;;
25057;SDS011;13057;50.978;11.034;2023-04-08T21:55:51;34.33;;;18.58;;
25057;SDS011;13057;50.978;11.034;2023-04-08T21:58:17;33.42;;;18.80;;
25057;SDS011;13057;50.978;11.034;2023-04-08T22:00:43;33.15;;;18.52;;
25057;SDS011;13057;50.978;11.034;2023-04-08T22:03:10;34.03;;;20.35;;
25057;SDS011;13057;50.978;11.034;2023-04-08T22:05:35;32.40;;;18.63;;
25057;SDS011;13057;50.978;11.034;2023-04-08T22:08:02;32.45;;;18.67;;
25057;SDS011;13057;50.978;11.034;2023-04-08T22:10:27;37.97;;;21.88;;
25057;SDS011;13057;50.978;11.034;2023-04-08T22:12:53;35.13;;;18.90;;
25057;SDS011;13057;50.978;11.034;2023-04-08T22:15:19;32.08;;;18.00;;
25057;SDS011;13057;50.978;11.034;2023-04-08T22:17:46;36.72;;;19.23;;
25057;SDS011;13057;50.978;11.034;2023-04-08T22:20:11;36.92;;;21.17;;
25057;SDS011;13057;50.978;11.034;2023-04-08T22:22:37;34.65;;;21.90;;
25057;SDS011;13057;50.978;11.034;2023-04-08T22:25:03;41.38;;;20.27;;
25057;SDS011;13057;50.978;11.034;2023-04-08T22:27:30;35.03;;;20.48;;
25057;SDS011;13057;50.978;11.034;2023-04-08T22:29:56;34.50;;;19.70;;
25057;SDS011;13057;50.978;11.034;2023-04-08T22:32:22;34.78;;;19.77;;
25057;SDS011;13057;50.978;11.034;2023-04-08T22:34:47;35.92;;;21.45;;
25057;SDS011;13057;50.978;11.034;2023-04-08T22:37:14;35.78;;;20.15;;
25057;SDS011;13057;50.978;11.034;2023-04-08T22:39:39;34.42;;;20.60;;
25057;SDS011;13057;50.978;11.034;2023-04-08T22:42:05;33.05;;;20.65;;
25057;SDS011;13057;50.978;11.034;2023-04-08T22:44:31;38.97;;;21.50;;
25057;SDS011;13057;50.978;11.034;2023-04-08T22:46:57;37.90;;;21.73;;
25057;SDS011;13057;50.978;11.034;2023-04-08T22:49:23;41.38;;;21.58;;